sensor_id;sensor_type;location;lat;lon;timestamp;pressure;altitude;pressure_sealevel;temperature;humidity
61128;BME280;47013;42.664;23.242;2023-05-23T00:00:57;93923.78;;;11.41;100.00
61128;BME280;47013;42.664;23.242;2023-05-23T00:03:26;93905.88;;;11.47;100.00
61128;BME280;47013;42.664;23.242;2023-05-23T00:05:53;93905.06;;;11.50;100.00
61128;BME280;47013;42.664;23.242;2023-05-23T00:08:18;93896.50;;;11.52;100.00
61128;BME280;47013;42.664;23.242;2023-05-23T00:10:44;93896.78;;;11.58;100.00
61128;BME280;47013;42.664;23.242;2023-05-23T00:13:10;93898.28;;;11.62;100.00
61128;BME280;47013;42.664;23.242;2023-05-23T00:15:38;93887.41;;;11.62;100.00
61128;BME280;47013;42.664;23.242;2023-05-23T00:18:08;93893.59;;;11.63;100.00
61128;BME280;47013;42.664;23.242;2023-05-23T00:20:52;93891.75;;;11.56;100.00
61128;BME280;47013;42.664;23.242;2023-05-23T00:23:18;93888.00;;;11.50;100.00
61128;BME280;47013;42.664;23.242;2023-05-23T00:25:47;93893.34;;;11.53;100.00
61128;BME280;47013;42.664;23.242;2023-05-23T00:28:22;93868.09;;;11.33;100.00
61128;BME280;47013;42.664;23.242;2023-05-23T00:30:47;93871.50;;;11.37;100.00
61128;BME280;47013;42.664;23.242;2023-05-23T00:35:50;93859.22;;;11.29;100.00
61128;BME280;47013;42.664;23.242;2023-05-23T00:38:16;93869.25;;;11.32;100.00
61128;BME280;47013;42.664;23.242;2023-05-23T00:40:46;93869.63;;;11.34;100.00
61128;BME280;47013;42.664;23.242;2023-05-23T00:43:12;93854.13;;;11.31;100.00
61128;BME280;47013;42.664;23.242;2023-05-23T00:45:40;93863.03;;;11.35;100.00
61128;BME280;47013;42.664;23.242;2023-05-23T00:48:09;93873.41;;;11.40;100.00
61128;BME280;47013;42.664;23.242;2023-05-23T00:50:36;93863.38;;;11.37;100.00
61128;BME280;47013;42.664;23.242;2023-05-23T00:53:01;93885.28;;;11.50;100.00
61128;BME280;47013;42.664;23.242;2023-05-23T00:55:28;93893.34;;;11.53;100.00
61128;BME280;47013;42.664;23.242;2023-05-23T00:57:54;93893.41;;;11.50;100.00
61128;BME280;47013;42.664;23.242;2023-05-23T01:00:22;93898.84;;;11.50;100.00
61128;BME280;47013;42.664;23.242;2023-05-23T01:02:49;93892.66;;;11.49;100.00
61128;BME280;47013;42.664;23.242;2023-05-23T01:05:19;93893.41;;;11.50;100.00
61128;BME280;47013;42.664;23.242;2023-05-23T01:07:47;93898.78;;;11.53;100.00
61128;BME280;47013;42.664;23.242;2023-05-23T01:10:14;93899.22;;;11.52;100.00
61128;BME280;47013;42.664;23.242;2023-05-23T01:12:49;93894.97;;;11.51;100.00
61128;BME280;47013;42.664;23.242;2023-05-23T01:15:20;93895.44;;;11.46;100.00
61128;BME280;47013;42.664;23.242;2023-05-23T01:18:06;93900.47;;;11.44;100.00
61128;BME280;47013;42.664;23.242;2023-05-23T01:20:38;93900.53;;;11.40;100.00
61128;BME280;47013;42.664;23.242;2023-05-23T01:28:36;93895.59;;;11.35;100.00
61128;BME280;47013;42.664;23.242;2023-05-23T01:31:03;93894.84;;;11.31;100.00
61128;BME280;47013;42.664;23.242;2023-05-23T01:33:31;93897.97;;;11.30;100.00
61128;BME280;47013;42.664;23.242;2023-05-23T01:35:58;93888.00;;;11.23;100.00
61128;BME280;47013;42.664;23.242;2023-05-23T01:38:25;93896.16;;;11.23;100.00
61128;BME280;47013;42.664;23.242;2023-05-23T01:40:51;93895.81;;;11.21;100.00
61128;BME280;47013;42.664;23.242;2023-05-23T01:43:16;93881.06;;;11.22;100.00
61128;BME280;47013;42.664;23.242;2023-05-23T01:45:42;93878.38;;;11.18;100.00
61128;BME280;47013;42.664;23.242;2023-05-23T01:48:08;93875.66;;;11.18;100.00
61128;BME280;47013;42.664;23.242;2023-05-23T01:50:36;93889.63;;;11.17;100.00
61128;BME280;47013;42.664;23.242;2023-05-23T01:53:01;93883.78;;;11.22;100.00
61128;BME280;47013;42.664;23.242;2023-05-23T01:55:27;93879.56;;;11.17;100.00
61128;BME280;47013;42.664;23.242;2023-05-23T01:57:56;93868.34;;;11.15;100.00
61128;BME280;47013;42.664;23.242;2023-05-23T02:00:22;93876.47;;;11.15;100.00
61128;BME280;47013;42.664;23.242;2023-05-23T02:02:48;93868.00;;;11.13;100.00
61128;BME280;47013;42.664;23.242;2023-05-23T02:05:14;93874.94;;;11.14;100.00
61128;BME280;47013;42.664;23.242;2023-05-23T02:07:39;93870.03;;;11.06;100.00
61128;BME280;47013;42.664;23.242;2023-05-23T02:10:07;93879.31;;;11.08;100.00
61128;BME280;47013;42.664;23.242;2023-05-23T02:12:33;93883.97;;;11.08;100.00
61128;BME280;47013;42.664;23.242;2023-05-23T02:14:58;93879.75;;;11.03;100.00
61128;BME280;47013;42.664;23.242;2023-05-23T02:17:24;93879.41;;;11.01;100.00
61128;BME280;47013;42.664;23.242;2023-05-23T02:19:49;93880.16;;;11.02;100.00
61128;BME280;47013;42.664;23.242;2023-05-23T02:22:15;93877.09;;;11.00;100.00
61128;BME280;47013;42.664;23.242;2023-05-23T02:24:40;93884.06;;;11.01;100.00
61128;BME280;47013;42.664;23.242;2023-05-23T02:27:06;93888.31;;;11.02;100.00
61128;BME280;47013;42.664;23.242;2023-05-23T02:29:32;93879.88;;;10.96;100.00
61128;BME280;47013;42.664;23.242;2023-05-23T02:31:57;93886.41;;;10.99;100.00
61128;BME280;47013;42.664;23.242;2023-05-23T02:34:23;93878.66;;;10.70;100.00
61128;BME280;47013;42.664;23.242;2023-05-23T02:36:48;93871.06;;;10.58;100.00
61128;BME280;47013;42.664;23.242;2023-05-23T02:39:13;93864.84;;;10.61;100.00
61128;BME280;47013;42.664;23.242;2023-05-23T02:41:39;93867.50;;;10.64;100.00
61128;BME280;47013;42.664;23.242;2023-05-23T02:44:04;93859.34;;;10.68;100.00
61128;BME280;47013;42.664;23.242;2023-05-23T02:46:30;93862.03;;;10.68;100.00
61128;BME280;47013;42.664;23.242;2023-05-23T02:48:55;93865.88;;;10.71;100.00
61128;BME280;47013;42.664;23.242;2023-05-23T02:51:21;93860.09;;;10.69;100.00
61128;BME280;47013;42.664;23.242;2023-05-23T02:53:46;93875.97;;;10.70;100.00
61128;BME280;47013;42.664;23.242;2023-05-23T02:56:11;93874.38;;;10.73;100.00
61128;BME280;47013;42.664;23.242;2023-05-23T02:58:37;93872.06;;;10.71;100.00
61128;BME280;47013;42.664;23.242;2023-05-23T03:01:04;93874.78;;;10.71;100.00
61128;BME280;47013;42.664;23.242;2023-05-23T03:03:29;93871.72;;;10.69;100.00
61128;BME280;47013;42.664;23.242;2023-05-23T03:05:57;93881.41;;;10.67;100.00
61128;BME280;47013;42.664;23.242;2023-05-23T03:08:23;93883.41;;;10.62;100.00
61128;BME280;47013;42.664;23.242;2023-05-23T03:10:49;93878.34;;;10.64;100.00
61128;BME280;47013;42.664;23.242;2023-05-23T03:13:15;93883.75;;;10.64;100.00
61128;BME280;47013;42.664;23.242;2023-05-23T03:15:40;93875.63;;;10.64;100.00
61128;BME280;47013;42.664;23.242;2023-05-23T03:18:06;93871.38;;;10.63;100.00
61128;BME280;47013;42.664;23.242;2023-05-23T03:20:32;93874.09;;;10.63;100.00
61128;BME280;47013;42.664;23.242;2023-05-23T03:22:57;93877.22;;;10.62;100.00
61128;BME280;47013;42.664;23.242;2023-05-23T03:25:22;93880.28;;;10.64;100.00
61128;BME280;47013;42.664;23.242;2023-05-23T03:27:48;93877.16;;;10.66;100.00
61128;BME280;47013;42.664;23.242;2023-05-23T03:30:13;93872.88;;;10.68;100.00
61128;BME280;47013;42.664;23.242;2023-05-23T03:32:39;93878.31;;;10.68;100.00
61128;BME280;47013;42.664;23.242;2023-05-23T03:35:04;93877.94;;;10.66;100.00
61128;BME280;47013;42.664;23.242;2023-05-23T03:37:30;93882.16;;;10.67;100.00
61128;BME280;47013;42.664;23.242;2023-05-23T03:39:55;93889.88;;;10.72;100.00
61128;BME280;47013;42.664;23.242;2023-05-23T03:42:21;93890.63;;;10.73;100.00
61128;BME280;47013;42.664;23.242;2023-05-23T03:44:46;93886.09;;;10.62;100.00
61128;BME280;47013;42.664;23.242;2023-05-23T03:47:11;93895.75;;;10.33;100.00
61128;BME280;47013;42.664;23.242;2023-05-23T03:49:37;93899.13;;;10.41;100.00
61128;BME280;47013;42.664;23.242;2023-05-23T03:52:02;93901.78;;;10.48;100.00
61128;BME280;47013;42.664;23.242;2023-05-23T03:54:28;93904.38;;;10.58;100.00
61128;BME280;47013;42.664;23.242;2023-05-23T03:56:53;93905.03;;;10.66;100.00
61128;BME280;47013;42.664;23.242;2023-05-23T03:59:19;93904.97;;;10.73;100.00
61128;BME280;47013;42.664;23.242;2023-05-23T04:01:44;93902.56;;;10.79;100.00
61128;BME280;47013;42.664;23.242;2023-05-23T04:04:10;93907.50;;;10.87;100.00
61128;BME280;47013;42.664;23.242;2023-05-23T04:06:35;93905.41;;;10.99;100.00
61128;BME280;47013;42.664;23.242;2023-05-23T04:09:01;93907.22;;;11.09;100.00
61128;BME280;47013;42.664;23.242;2023-05-23T04:11:27;93903.22;;;11.17;100.00
61128;BME280;47013;42.664;23.242;2023-05-23T04:13:52;93901.94;;;11.25;100.00
61128;BME280;47013;42.664;23.242;2023-05-23T04:16:18;93902.59;;;11.33;100.00
61128;BME280;47013;42.664;23.242;2023-05-23T04:18:43;93905.63;;;11.38;100.00
61128;BME280;47013;42.664;23.242;2023-05-23T04:21:11;93901.72;;;11.39;100.00
61128;BME280;47013;42.664;23.242;2023-05-23T04:23:36;93900.44;;;11.47;100.00
61128;BME280;47013;42.664;23.242;2023-05-23T04:26:02;93893.34;;;11.53;100.00
61128;BME280;47013;42.664;23.242;2023-05-23T04:28:30;93901.41;;;11.61;100.00
61128;BME280;47013;42.664;23.242;2023-05-23T04:30:55;93892.78;;;11.66;100.00
61128;BME280;47013;42.664;23.242;2023-05-23T04:33:21;93888.88;;;11.67;100.00
61128;BME280;47013;42.664;23.242;2023-05-23T04:35:46;93893.91;;;11.68;100.00
61128;BME280;47013;42.664;23.242;2023-05-23T04:38:11;93889.81;;;11.33;100.00
61128;BME280;47013;42.664;23.242;2023-05-23T04:40:37;93892.69;;;11.22;100.00
61128;BME280;47013;42.664;23.242;2023-05-23T04:43:03;93892.72;;;11.19;100.00
61128;BME280;47013;42.664;23.242;2023-05-23T04:45:28;93901.22;;;11.21;100.00
61128;BME280;47013;42.664;23.242;2023-05-23T04:47:53;93899.09;;;11.32;100.00
61128;BME280;47013;42.664;23.242;2023-05-23T04:50:19;93908.28;;;11.42;100.00
61128;BME280;47013;42.664;23.242;2023-05-23T04:52:47;93919.19;;;11.38;100.00
61128;BME280;47013;42.664;23.242;2023-05-23T04:55:12;93917.34;;;11.32;100.00
61128;BME280;47013;42.664;23.242;2023-05-23T04:57:38;93917.19;;;11.15;100.00
61128;BME280;47013;42.664;23.242;2023-05-23T05:00:04;93916.06;;;11.13;100.00
61128;BME280;47013;42.664;23.242;2023-05-23T05:02:39;93917.53;;;11.17;100.00
61128;BME280;47013;42.664;23.242;2023-05-23T05:05:05;93925.28;;;11.19;100.00
61128;BME280;47013;42.664;23.242;2023-05-23T05:07:31;93927.59;;;11.20;100.00
61128;BME280;47013;42.664;23.242;2023-05-23T05:09:57;93919.75;;;11.26;100.00
61128;BME280;47013;42.664;23.242;2023-05-23T05:12:22;93916.75;;;11.20;100.00
61128;BME280;47013;42.664;23.242;2023-05-23T05:14:48;93919.56;;;11.13;100.00
61128;BME280;47013;42.664;23.242;2023-05-23T05:17:13;93930.41;;;11.13;100.00
61128;BME280;47013;42.664;23.242;2023-05-23T05:19:39;93933.81;;;11.17;100.00
61128;BME280;47013;42.664;23.242;2023-05-23T05:22:04;93936.53;;;11.17;100.00
61128;BME280;47013;42.664;23.242;2023-05-23T05:24:30;93937.22;;;11.25;100.00
61128;BME280;47013;42.664;23.242;2023-05-23T05:26:57;93929.22;;;11.41;100.00
61128;BME280;47013;42.664;23.242;2023-05-23T05:29:22;93926.72;;;11.54;100.00
61128;BME280;47013;42.664;23.242;2023-05-23T05:31:47;93929.97;;;11.69;100.00
61128;BME280;47013;42.664;23.242;2023-05-23T05:34:13;93924.41;;;11.79;100.00
61128;BME280;47013;42.664;23.242;2023-05-23T05:36:38;93922.63;;;11.93;100.00
61128;BME280;47013;42.664;23.242;2023-05-23T05:39:10;93931.09;;;11.98;100.00
61128;BME280;47013;42.664;23.242;2023-05-23T05:41:36;93928.19;;;11.86;100.00
61128;BME280;47013;42.664;23.242;2023-05-23T05:44:01;93935.16;;;11.87;100.00
61128;BME280;47013;42.664;23.242;2023-05-23T05:46:26;93938.88;;;11.96;100.00
61128;BME280;47013;42.664;23.242;2023-05-23T05:48:52;93936.75;;;12.07;100.00
61128;BME280;47013;42.664;23.242;2023-05-23T05:51:17;93940.53;;;12.14;100.00
61128;BME280;47013;42.664;23.242;2023-05-23T05:53:43;93939.19;;;12.02;100.00
61128;BME280;47013;42.664;23.242;2023-05-23T05:56:08;93938.69;;;11.84;100.00
61128;BME280;47013;42.664;23.242;2023-05-23T05:58:33;93943.72;;;11.85;100.00
61128;BME280;47013;42.664;23.242;2023-05-23T06:00:59;93944.84;;;11.88;100.00
61128;BME280;47013;42.664;23.242;2023-05-23T06:03:24;93943.34;;;12.06;100.00
61128;BME280;47013;42.664;23.242;2023-05-23T06:05:50;93947.38;;;12.22;100.00
61128;BME280;47013;42.664;23.242;2023-05-23T06:08:15;93945.84;;;12.21;100.00
61128;BME280;47013;42.664;23.242;2023-05-23T06:10:41;93944.13;;;12.30;100.00
61128;BME280;47013;42.664;23.242;2023-05-23T06:13:06;93933.66;;;12.49;100.00
61128;BME280;47013;42.664;23.242;2023-05-23T06:15:31;93946.59;;;12.64;100.00
61128;BME280;47013;42.664;23.242;2023-05-23T06:17:57;93938.03;;;12.66;100.00
61128;BME280;47013;42.664;23.242;2023-05-23T06:20:22;93944.91;;;12.70;100.00
61128;BME280;47013;42.664;23.242;2023-05-23T06:22:47;93948.31;;;12.75;100.00
61128;BME280;47013;42.664;23.242;2023-05-23T06:25:13;93943.41;;;12.89;100.00
61128;BME280;47013;42.664;23.242;2023-05-23T06:27:38;93941.06;;;13.08;100.00
61128;BME280;47013;42.664;23.242;2023-05-23T06:30:04;93942.75;;;13.21;100.00
61128;BME280;47013;42.664;23.242;2023-05-23T06:32:30;93947.13;;;13.35;100.00
61128;BME280;47013;42.664;23.242;2023-05-23T06:34:55;93951.16;;;13.47;100.00
61128;BME280;47013;42.664;23.242;2023-05-23T06:37:20;93949.09;;;13.51;100.00
61128;BME280;47013;42.664;23.242;2023-05-23T06:39:46;93946.81;;;13.66;100.00
61128;BME280;47013;42.664;23.242;2023-05-23T06:42:11;93949.22;;;13.80;100.00
61128;BME280;47013;42.664;23.242;2023-05-23T06:44:36;93938.41;;;13.93;100.00
61128;BME280;47013;42.664;23.242;2023-05-23T06:47:02;93941.91;;;14.09;100.00
61128;BME280;47013;42.664;23.242;2023-05-23T06:49:27;93936.41;;;14.26;100.00
61128;BME280;47013;42.664;23.242;2023-05-23T06:51:53;93931.38;;;14.40;100.00
61128;BME280;47013;42.664;23.242;2023-05-23T06:54:18;93930.59;;;14.56;100.00
61128;BME280;47013;42.664;23.242;2023-05-23T06:56:44;93926.84;;;14.79;100.00
61128;BME280;47013;42.664;23.242;2023-05-23T06:59:09;93920.13;;;14.96;100.00
61128;BME280;47013;42.664;23.242;2023-05-23T07:01:35;93925.97;;;15.11;100.00
61128;BME280;47013;42.664;23.242;2023-05-23T07:04:00;93919.41;;;15.34;97.91
61128;BME280;47013;42.664;23.242;2023-05-23T07:06:26;93925.00;;;15.56;98.41
61128;BME280;47013;42.664;23.242;2023-05-23T07:08:52;93925.16;;;15.65;97.75
61128;BME280;47013;42.664;23.242;2023-05-23T07:11:18;93926.66;;;15.79;96.92
61128;BME280;47013;42.664;23.242;2023-05-23T07:13:44;93925.66;;;15.85;95.26
61128;BME280;47013;42.664;23.242;2023-05-23T07:16:10;93915.91;;;15.97;93.60
61128;BME280;47013;42.664;23.242;2023-05-23T07:18:35;93912.06;;;16.07;92.64
61128;BME280;47013;42.664;23.242;2023-05-23T07:21:01;93916.28;;;16.34;92.29
61128;BME280;47013;42.664;23.242;2023-05-23T07:23:26;93909.38;;;16.42;90.75
61128;BME280;47013;42.664;23.242;2023-05-23T07:25:52;93904.72;;;16.51;89.43
61128;BME280;47013;42.664;23.242;2023-05-23T07:28:18;93909.94;;;16.71;88.50
61128;BME280;47013;42.664;23.242;2023-05-23T07:30:44;93904.66;;;16.64;86.39
61128;BME280;47013;42.664;23.242;2023-05-23T07:33:10;93905.44;;;16.65;86.01
61128;BME280;47013;42.664;23.242;2023-05-23T07:35:35;93900.94;;;16.71;86.76
61128;BME280;47013;42.664;23.242;2023-05-23T07:38:01;93901.66;;;16.84;90.31
61128;BME280;47013;42.664;23.242;2023-05-23T07:40:26;93902.22;;;17.01;89.33
61128;BME280;47013;42.664;23.242;2023-05-23T07:42:51;93900.44;;;17.07;87.96
61128;BME280;47013;42.664;23.242;2023-05-23T07:45:18;93898.50;;;17.17;87.50
61128;BME280;47013;42.664;23.242;2023-05-23T07:47:43;93907.13;;;17.37;87.49
61128;BME280;47013;42.664;23.242;2023-05-23T07:50:10;93892.94;;;17.60;84.90
61128;BME280;47013;42.664;23.242;2023-05-23T07:52:35;93902.84;;;17.67;85.75
61128;BME280;47013;42.664;23.242;2023-05-23T07:55:01;93902.16;;;17.76;84.33
61128;BME280;47013;42.664;23.242;2023-05-23T07:57:26;93904.00;;;17.88;83.28
61128;BME280;47013;42.664;23.242;2023-05-23T07:59:52;93899.50;;;18.12;84.85
61128;BME280;47013;42.664;23.242;2023-05-23T08:02:19;93901.34;;;18.24;81.27
61128;BME280;47013;42.664;23.242;2023-05-23T08:04:46;93895.25;;;18.30;79.27
61128;BME280;47013;42.664;23.242;2023-05-23T08:07:11;93894.97;;;18.37;78.59
61128;BME280;47013;42.664;23.242;2023-05-23T08:09:38;93890.25;;;18.55;81.24
61128;BME280;47013;42.664;23.242;2023-05-23T08:12:05;93892.56;;;18.75;79.18
61128;BME280;47013;42.664;23.242;2023-05-23T08:14:30;93889.66;;;18.88;77.49
61128;BME280;47013;42.664;23.242;2023-05-23T08:16:56;93891.25;;;19.13;77.39
61128;BME280;47013;42.664;23.242;2023-05-23T08:19:21;93897.03;;;19.24;76.36
61128;BME280;47013;42.664;23.242;2023-05-23T08:21:47;93893.69;;;19.29;74.44
61128;BME280;47013;42.664;23.242;2023-05-23T08:24:12;93892.41;;;19.49;72.29
61128;BME280;47013;42.664;23.242;2023-05-23T08:26:38;93894.53;;;19.54;75.05
61128;BME280;47013;42.664;23.242;2023-05-23T08:29:03;93894.38;;;19.57;73.93
61128;BME280;47013;42.664;23.242;2023-05-23T08:31:30;93891.56;;;19.76;72.13
61128;BME280;47013;42.664;23.242;2023-05-23T08:33:56;93884.78;;;19.86;72.37
61128;BME280;47013;42.664;23.242;2023-05-23T08:36:22;93890.59;;;19.88;73.06
61128;BME280;47013;42.664;23.242;2023-05-23T08:38:49;93890.41;;;19.91;73.17
61128;BME280;47013;42.664;23.242;2023-05-23T08:41:18;93879.50;;;20.06;73.21
61128;BME280;47013;42.664;23.242;2023-05-23T08:43:44;93879.19;;;20.28;71.99
61128;BME280;47013;42.664;23.242;2023-05-23T08:46:10;93883.47;;;20.29;69.94
61128;BME280;47013;42.664;23.242;2023-05-23T08:48:37;93885.34;;;20.23;69.84
61128;BME280;47013;42.664;23.242;2023-05-23T08:51:03;93879.03;;;20.31;70.45
61128;BME280;47013;42.664;23.242;2023-05-23T08:53:30;93872.94;;;20.51;69.74
61128;BME280;47013;42.664;23.242;2023-05-23T08:55:57;93868.97;;;20.67;68.65
61128;BME280;47013;42.664;23.242;2023-05-23T08:58:30;93872.56;;;20.97;67.38
61128;BME280;47013;42.664;23.242;2023-05-23T09:00:57;93869.97;;;20.94;63.96
61128;BME280;47013;42.664;23.242;2023-05-23T09:03:25;93865.63;;;21.16;65.01
61128;BME280;47013;42.664;23.242;2023-05-23T09:05:52;93867.13;;;21.03;64.15
61128;BME280;47013;42.664;23.242;2023-05-23T09:08:18;93868.31;;;21.26;63.91
61128;BME280;47013;42.664;23.242;2023-05-23T09:10:44;93862.09;;;21.45;64.07
61128;BME280;47013;42.664;23.242;2023-05-23T09:13:10;93867.69;;;21.66;60.26
61128;BME280;47013;42.664;23.242;2023-05-23T09:15:35;93866.47;;;21.52;57.05
61128;BME280;47013;42.664;23.242;2023-05-23T09:18:01;93867.91;;;21.62;58.38
61128;BME280;47013;42.664;23.242;2023-05-23T09:20:27;93870.25;;;21.69;55.11
61128;BME280;47013;42.664;23.242;2023-05-23T09:22:53;93860.34;;;21.77;54.83
61128;BME280;47013;42.664;23.242;2023-05-23T09:25:19;93862.84;;;21.96;55.74
61128;BME280;47013;42.664;23.242;2023-05-23T09:27:45;93862.16;;;22.16;53.91
61128;BME280;47013;42.664;23.242;2023-05-23T09:30:10;93858.91;;;22.37;51.11
61128;BME280;47013;42.664;23.242;2023-05-23T09:32:39;93855.88;;;22.15;50.99
61128;BME280;47013;42.664;23.242;2023-05-23T09:35:05;93857.03;;;22.08;47.97
61128;BME280;47013;42.664;23.242;2023-05-23T09:37:33;93853.31;;;22.12;48.35
61128;BME280;47013;42.664;23.242;2023-05-23T09:40:09;93853.25;;;22.06;47.62
61128;BME280;47013;42.664;23.242;2023-05-23T09:42:35;93850.00;;;22.07;46.89
61128;BME280;47013;42.664;23.242;2023-05-23T09:45:05;93839.09;;;22.19;45.91
61128;BME280;47013;42.664;23.242;2023-05-23T09:47:31;93847.59;;;22.35;45.88
61128;BME280;47013;42.664;23.242;2023-05-23T09:49:56;93844.00;;;22.29;46.23
61128;BME280;47013;42.664;23.242;2023-05-23T09:52:22;93839.78;;;22.34;42.92
61128;BME280;47013;42.664;23.242;2023-05-23T09:54:47;93841.19;;;22.44;43.39
61128;BME280;47013;42.664;23.242;2023-05-23T09:57:14;93832.72;;;22.74;44.36
61128;BME280;47013;42.664;23.242;2023-05-23T09:59:41;93835.41;;;22.88;43.10
61128;BME280;47013;42.664;23.242;2023-05-23T10:02:13;93833.69;;;22.71;41.70
61128;BME280;47013;42.664;23.242;2023-05-23T10:04:41;93837.00;;;22.75;41.99
61128;BME280;47013;42.664;23.242;2023-05-23T10:07:17;93832.28;;;22.81;40.99
61128;BME280;47013;42.664;23.242;2023-05-23T10:09:53;93833.06;;;22.81;40.78
61128;BME280;47013;42.664;23.242;2023-05-23T10:15:01;93839.28;;;23.28;41.44
61128;BME280;47013;42.664;23.242;2023-05-23T10:17:56;93830.66;;;23.46;39.37
61128;BME280;47013;42.664;23.242;2023-05-23T10:20:29;93834.13;;;23.41;39.17
61128;BME280;47013;42.664;23.242;2023-05-23T10:23:01;93839.13;;;23.69;38.84
61128;BME280;47013;42.664;23.242;2023-05-23T10:25:27;93825.41;;;23.86;37.77
61128;BME280;47013;42.664;23.242;2023-05-23T10:27:57;93824.88;;;23.81;38.67
61128;BME280;47013;42.664;23.242;2023-05-23T10:30:25;93828.88;;;23.80;36.13
61128;BME280;47013;42.664;23.242;2023-05-23T10:32:52;93824.69;;;23.91;36.92
61128;BME280;47013;42.664;23.242;2023-05-23T10:46:14;93809.38;;;23.58;36.31
61128;BME280;47013;42.664;23.242;2023-05-23T10:48:42;93816.56;;;23.81;36.64
61128;BME280;47013;42.664;23.242;2023-05-23T10:51:12;93813.75;;;23.70;37.24
61128;BME280;47013;42.664;23.242;2023-05-23T10:53:45;93814.28;;;23.80;34.98
61128;BME280;47013;42.664;23.242;2023-05-23T10:56:22;93810.06;;;23.90;35.62
61128;BME280;47013;42.664;23.242;2023-05-23T10:58:54;93804.31;;;23.94;36.24
61128;BME280;47013;42.664;23.242;2023-05-23T11:01:20;93807.31;;;23.96;36.60
61128;BME280;47013;42.664;23.242;2023-05-23T11:03:52;93786.28;;;24.15;36.20
61128;BME280;47013;42.664;23.242;2023-05-23T11:09:08;93804.78;;;23.55;35.37
61128;BME280;47013;42.664;23.242;2023-05-23T11:17:16;93798.00;;;23.56;35.64
61128;BME280;47013;42.664;23.242;2023-05-23T11:19:58;93785.16;;;23.90;35.54
61128;BME280;47013;42.664;23.242;2023-05-23T11:22:30;93787.34;;;24.23;34.29
61128;BME280;47013;42.664;23.242;2023-05-23T11:24:57;93786.66;;;24.39;34.09
61128;BME280;47013;42.664;23.242;2023-05-23T11:27:33;93789.75;;;24.58;34.68
61128;BME280;47013;42.664;23.242;2023-05-23T11:30:07;93785.47;;;23.98;33.96
61128;BME280;47013;42.664;23.242;2023-05-23T11:32:34;93787.25;;;24.06;34.89
61128;BME280;47013;42.664;23.242;2023-05-23T11:35:04;93780.50;;;24.13;34.14
61128;BME280;47013;42.664;23.242;2023-05-23T11:37:30;93784.25;;;24.10;33.28
61128;BME280;47013;42.664;23.242;2023-05-23T11:39:57;93779.44;;;24.05;33.93
61128;BME280;47013;42.664;23.242;2023-05-23T11:42:22;93770.16;;;24.13;33.81
61128;BME280;47013;42.664;23.242;2023-05-23T11:44:52;93780.38;;;24.39;33.95
61128;BME280;47013;42.664;23.242;2023-05-23T11:47:18;93765.06;;;24.66;33.19
61128;BME280;47013;42.664;23.242;2023-05-23T11:49:45;93765.03;;;24.60;33.61
61128;BME280;47013;42.664;23.242;2023-05-23T11:52:14;93774.63;;;24.48;32.78
61128;BME280;47013;42.664;23.242;2023-05-23T11:54:40;93766.84;;;24.63;33.28
61128;BME280;47013;42.664;23.242;2023-05-23T11:57:09;93771.66;;;24.85;31.54
61128;BME280;47013;42.664;23.242;2023-05-23T11:59:37;93763.34;;;24.91;32.66
61128;BME280;47013;42.664;23.242;2023-05-23T12:02:04;93763.84;;;24.95;34.15
61128;BME280;47013;42.664;23.242;2023-05-23T12:04:30;93752.28;;;25.24;32.01
61128;BME280;47013;42.664;23.242;2023-05-23T12:06:56;93755.81;;;25.36;32.91
61128;BME280;47013;42.664;23.242;2023-05-23T12:09:21;93754.31;;;25.35;31.75
61128;BME280;47013;42.664;23.242;2023-05-23T12:11:47;93745.50;;;25.03;31.19
61128;BME280;47013;42.664;23.242;2023-05-23T12:14:16;93753.75;;;24.97;32.05
61128;BME280;47013;42.664;23.242;2023-05-23T12:16:45;93750.53;;;25.33;32.75
61128;BME280;47013;42.664;23.242;2023-05-23T12:19:15;93737.66;;;25.07;31.38
61128;BME280;47013;42.664;23.242;2023-05-23T12:21:45;93742.97;;;25.05;31.78
61128;BME280;47013;42.664;23.242;2023-05-23T12:24:17;93743.69;;;24.89;32.00
61128;BME280;47013;42.664;23.242;2023-05-23T12:26:53;93738.66;;;24.87;32.51
61128;BME280;47013;42.664;23.242;2023-05-23T12:29:28;93737.88;;;24.92;31.76
61128;BME280;47013;42.664;23.242;2023-05-23T12:31:53;93736.63;;;24.77;32.12
61128;BME280;47013;42.664;23.242;2023-05-23T12:34:20;93729.00;;;24.55;32.14
61128;BME280;47013;42.664;23.242;2023-05-23T12:36:46;93724.75;;;24.76;31.59
61128;BME280;47013;42.664;23.242;2023-05-23T12:39:14;93714.72;;;25.07;31.94
61128;BME280;47013;42.664;23.242;2023-05-23T12:41:46;93725.50;;;24.65;32.93
61128;BME280;47013;42.664;23.242;2023-05-23T12:44:14;93719.91;;;24.37;32.43
61128;BME280;47013;42.664;23.242;2023-05-23T12:46:40;93720.53;;;24.04;34.45
61128;BME280;47013;42.664;23.242;2023-05-23T12:49:06;93720.91;;;23.80;33.55
61128;BME280;47013;42.664;23.242;2023-05-23T12:51:31;93704.31;;;23.43;33.19
61128;BME280;47013;42.664;23.242;2023-05-23T12:53:57;93704.00;;;23.67;34.06
61128;BME280;47013;42.664;23.242;2023-05-23T12:56:23;93712.16;;;23.88;33.88
61128;BME280;47013;42.664;23.242;2023-05-23T12:58:48;93713.72;;;24.00;33.88
61128;BME280;47013;42.664;23.242;2023-05-23T13:01:14;93702.41;;;24.09;34.14
61128;BME280;47013;42.664;23.242;2023-05-23T13:03:39;93696.38;;;24.16;33.60
61128;BME280;47013;42.664;23.242;2023-05-23T13:06:06;93698.56;;;23.95;33.51
61128;BME280;47013;42.664;23.242;2023-05-23T13:08:32;93697.94;;;23.69;34.03
61128;BME280;47013;42.664;23.242;2023-05-23T13:10:57;93704.03;;;23.73;33.99
61128;BME280;47013;42.664;23.242;2023-05-23T13:13:25;93695.78;;;23.84;33.38